createdAt,value
2023-04-16T00:00:04.692Z,54.22
2023-04-16T00:02:39.152Z,54.08
2023-04-16T00:05:07.683Z,54.13
2023-04-16T00:07:35.366Z,54.11
2023-04-16T00:10:03.200Z,54.20
2023-04-16T00:12:30.959Z,54.11
2023-04-16T00:14:59.005Z,54.01
2023-04-16T00:17:26.735Z,54.04
2023-04-16T00:19:54.443Z,54.05
2023-04-16T00:22:22.158Z,53.95
2023-04-16T00:24:49.866Z,53.76
2023-04-16T00:27:20.328Z,53.71
2023-04-16T00:29:48.666Z,53.71
2023-04-16T00:32:16.885Z,53.74
2023-04-16T00:34:44.702Z,53.80
2023-04-16T00:37:12.431Z,53.82
2023-04-16T00:39:40.312Z,53.70
2023-04-16T00:42:08.063Z,53.72
2023-04-16T00:44:36.363Z,53.73
2023-04-16T00:47:06.218Z,53.62
2023-04-16T00:49:34.842Z,53.65
2023-04-16T00:52:03.363Z,53.63
2023-04-16T00:54:32.964Z,53.59
2023-04-16T00:57:01.544Z,53.62
2023-04-16T00:59:30.037Z,53.61
2023-04-16T01:01:57.856Z,53.62
2023-04-16T01:04:26.325Z,53.68
2023-04-16T01:06:54.531Z,53.58
2023-04-16T01:09:22.180Z,53.73
2023-04-16T01:11:49.852Z,53.66
2023-04-16T01:14:17.518Z,53.63
2023-04-16T01:16:45.257Z,53.67
2023-04-16T01:19:12.928Z,53.73
2023-04-16T01:21:40.752Z,53.61
2023-04-16T01:24:08.812Z,53.73
2023-04-16T01:26:36.532Z,53.71
2023-04-16T01:29:04.166Z,53.68
2023-04-16T01:31:31.942Z,53.80
2023-04-16T01:34:05.477Z,53.82
2023-04-16T01:36:33.684Z,53.82
2023-04-16T01:39:01.336Z,53.96
2023-04-16T01:41:28.908Z,53.91
2023-04-16T01:43:56.499Z,54.06
2023-04-16T01:46:29.222Z,54.14
2023-04-16T01:48:58.106Z,54.09
2023-04-16T01:51:25.884Z,54.27
2023-04-16T01:53:53.883Z,54.26
2023-04-16T01:56:21.528Z,54.27
2023-04-16T01:58:49.208Z,54.17
2023-04-16T02:01:19.065Z,54.32
2023-04-16T02:03:48.327Z,54.22
2023-04-16T02:06:16.448Z,54.48
2023-04-16T02:08:44.687Z,54.50
2023-04-16T02:11:12.283Z,54.30
2023-04-16T02:13:40.377Z,54.47
2023-04-16T02:16:08.869Z,54.39
2023-04-16T02:18:43.863Z,54.35
2023-04-16T02:21:13.941Z,54.35
2023-04-16T02:23:42.150Z,54.42
2023-04-16T02:26:10.464Z,54.45
2023-04-16T02:28:39.169Z,54.51
2023-04-16T02:31:08.007Z,54.57
2023-04-16T02:33:41.558Z,54.58
2023-04-16T02:36:11.097Z,54.53
2023-04-16T02:38:38.740Z,54.61
2023-04-16T02:41:08.827Z,54.68
2023-04-16T02:43:36.705Z,54.71
2023-04-16T02:46:05.413Z,54.66
2023-04-16T02:48:33.282Z,54.52
2023-04-16T02:51:01.114Z,54.61
2023-04-16T02:53:28.801Z,54.53
2023-04-16T02:55:56.548Z,54.74
2023-04-16T02:58:26.367Z,54.72
2023-04-16T03:00:55.798Z,54.88
2023-04-16T03:03:23.608Z,54.79
2023-04-16T03:05:51.285Z,54.83
2023-04-16T03:08:19.376Z,54.82
2023-04-16T03:10:46.986Z,54.83
2023-04-16T03:13:15.763Z,54.87
2023-04-16T03:15:50.040Z,54.78
2023-04-16T03:18:17.943Z,54.84
2023-04-16T03:20:45.741Z,54.90
2023-04-16T03:23:13.458Z,54.70
2023-04-16T03:25:41.169Z,54.72
2023-04-16T03:28:10.358Z,54.72
2023-04-16T03:30:38.990Z,54.56
2023-04-16T03:33:07.374Z,54.55
2023-04-16T03:35:35.765Z,54.45
2023-04-16T03:38:04.081Z,54.28
2023-04-16T03:40:32.112Z,54.35
2023-04-16T03:43:00.827Z,54.33
2023-04-16T03:45:29.500Z,54.46
2023-04-16T03:47:57.524Z,54.42
2023-04-16T03:50:26.820Z,54.29
2023-04-16T03:52:54.813Z,54.28
2023-04-16T03:55:22.498Z,54.23
2023-04-16T03:57:50.197Z,54.24
2023-04-16T04:00:18.202Z,54.19
2023-04-16T04:02:59.156Z,54.12
2023-04-16T04:05:27.036Z,54.20
2023-04-16T04:07:54.765Z,54.13
2023-04-16T04:10:22.610Z,54.05
2023-04-16T04:12:50.409Z,54.15
2023-04-16T04:15:18.360Z,54.18
2023-04-16T04:17:46.216Z,54.21
2023-04-16T04:20:14.111Z,54.23
2023-04-16T04:22:45.132Z,54.22
2023-04-16T04:25:13.274Z,54.18
2023-04-16T04:27:41.034Z,54.15
2023-04-16T04:30:10.017Z,54.11
2023-04-16T04:32:38.765Z,54.04
2023-04-16T04:35:07.130Z,54.01
2023-04-16T04:37:34.975Z,54.01
2023-04-16T04:40:11.717Z,53.91
2023-04-16T04:42:39.497Z,53.96
2023-04-16T04:45:08.315Z,53.91
2023-04-16T04:47:36.556Z,53.95
2023-04-16T04:50:06.787Z,53.90
2023-04-16T04:52:34.950Z,54.10
2023-04-16T04:55:03.760Z,54.07
2023-04-16T04:57:31.565Z,54.20
2023-04-16T04:59:59.603Z,54.09
2023-04-16T05:02:31.129Z,54.09
2023-04-16T05:04:59.215Z,54.02
2023-04-16T05:07:29.198Z,54.13
2023-04-16T05:09:56.816Z,54.09
2023-04-16T05:12:24.743Z,54.06
2023-04-16T05:14:52.568Z,53.94
2023-04-16T05:17:20.236Z,53.92
2023-04-16T05:19:48.004Z,53.96
2023-04-16T05:22:18.849Z,53.89
2023-04-16T05:24:46.662Z,53.91
2023-04-16T05:27:14.943Z,53.79
2023-04-16T05:29:42.615Z,53.77
2023-04-16T05:32:10.754Z,53.79
2023-04-16T05:34:38.525Z,53.81
2023-04-16T05:37:06.257Z,53.81
2023-04-16T05:39:34.204Z,53.82
2023-04-16T05:42:02.034Z,53.82
2023-04-16T05:44:29.895Z,53.89
2023-04-16T05:46:57.584Z,53.75
2023-04-16T05:49:26.533Z,53.83
2023-04-16T05:51:54.295Z,53.72
2023-04-16T05:54:22.078Z,53.71
2023-04-16T05:56:49.745Z,53.67
2023-04-16T05:59:17.568Z,53.65
2023-04-16T06:01:45.295Z,53.76
2023-04-16T06:04:13.230Z,53.64
2023-04-16T06:06:41.050Z,53.57
2023-04-16T06:09:12.462Z,53.65
2023-04-16T06:11:40.253Z,53.75
2023-04-16T06:14:07.991Z,53.54
2023-04-16T06:16:35.748Z,53.46
2023-04-16T06:19:03.502Z,53.56
2023-04-16T06:21:31.749Z,53.29
2023-04-16T06:23:59.562Z,53.36
2023-04-16T06:26:27.289Z,53.44
2023-04-16T06:28:54.983Z,53.28
2023-04-16T06:31:22.691Z,53.27
2023-04-16T06:33:50.420Z,53.11
2023-04-16T06:36:18.220Z,53.20
2023-04-16T06:38:46.393Z,53.27
2023-04-16T06:41:16.881Z,53.04
2023-04-16T06:43:44.879Z,53.08
2023-04-16T06:46:12.582Z,53.00
2023-04-16T06:48:40.319Z,52.82
2023-04-16T06:51:08.260Z,52.90
2023-04-16T06:53:37.792Z,52.78
2023-04-16T06:56:06.776Z,52.70
2023-04-16T06:58:34.465Z,52.57
2023-04-16T07:01:02.696Z,52.59
2023-04-16T07:03:31.314Z,52.51
2023-04-16T07:05:59.059Z,52.50
2023-04-16T07:08:26.821Z,52.42
2023-04-16T07:10:54.892Z,52.35
2023-04-16T07:13:22.662Z,52.30
2023-04-16T07:15:50.367Z,52.24
2023-04-16T07:18:19.287Z,52.15
2023-04-16T07:20:48.677Z,52.28
2023-04-16T07:23:16.402Z,52.26
2023-04-16T07:25:44.614Z,52.09
2023-04-16T07:28:12.875Z,52.16
2023-04-16T07:30:40.556Z,52.01
2023-04-16T07:33:08.269Z,51.92
2023-04-16T07:35:36.445Z,51.83
2023-04-16T07:38:04.136Z,51.96
2023-04-16T07:40:33.303Z,51.90
2023-04-16T07:43:01.176Z,51.99
2023-04-16T07:45:29.232Z,52.04
2023-04-16T07:47:57.001Z,51.94
2023-04-16T07:50:25.419Z,51.88
2023-04-16T07:52:53.513Z,51.76
2023-04-16T07:55:22.760Z,51.47
2023-04-16T07:57:50.661Z,51.56
2023-04-16T08:00:18.362Z,51.51
2023-04-16T08:02:46.484Z,51.18
2023-04-16T08:05:14.314Z,51.22
2023-04-16T08:07:42.243Z,51.18
2023-04-16T08:10:10.078Z,51.44
2023-04-16T08:12:38.851Z,51.13
2023-04-16T08:15:07.553Z,51.14
2023-04-16T08:17:37.622Z,51.05
2023-04-16T08:20:06.966Z,51.05
2023-04-16T08:22:34.774Z,51.08
2023-04-16T08:25:04.356Z,50.90
2023-04-16T08:27:32.117Z,51.06
2023-04-16T08:29:59.869Z,50.91
2023-04-16T08:32:29.807Z,50.87
2023-04-16T08:34:57.991Z,50.81
2023-04-16T08:37:26.593Z,50.84
2023-04-16T08:39:54.342Z,50.77
2023-04-16T08:42:40.608Z,50.62
2023-04-16T08:45:17.162Z,50.72
2023-04-16T08:47:51.087Z,50.56
2023-04-16T08:50:24.330Z,50.44
2023-04-16T08:53:00.485Z,50.35
2023-04-16T08:55:41.263Z,50.21
2023-04-16T08:58:15.061Z,50.39
2023-04-16T09:00:44.094Z,50.43
2023-04-16T09:03:13.371Z,50.57
2023-04-16T09:05:43.886Z,50.59
2023-04-16T09:08:12.458Z,50.68
2023-04-16T09:10:40.332Z,50.71
2023-04-16T09:13:11.606Z,50.70
2023-04-16T09:15:45.251Z,50.57
2023-04-16T09:18:13.037Z,50.46
2023-04-16T09:20:46.865Z,50.42
2023-04-16T09:23:14.568Z,50.58
2023-04-16T09:25:46.645Z,50.51
2023-04-16T09:28:48.776Z,50.35
2023-04-16T09:31:18.638Z,50.41
2023-04-16T09:34:09.125Z,50.42
2023-04-16T09:36:37.402Z,50.78
2023-04-16T09:39:07.361Z,51.03
2023-04-16T09:41:39.885Z,51.15
2023-04-16T09:44:07.689Z,51.34
2023-04-16T09:46:40.547Z,51.41
2023-04-16T09:49:18.044Z,51.63
2023-04-16T09:51:50.898Z,51.98
2023-04-16T09:54:20.370Z,52.01
2023-04-16T09:56:48.058Z,52.17
2023-04-16T09:59:26.643Z,52.23
2023-04-16T10:02:15.226Z,52.36
2023-04-16T10:04:54.004Z,52.31
2023-04-16T10:07:22.507Z,52.50
2023-04-16T10:09:52.450Z,52.32
2023-04-16T10:12:22.747Z,52.41
2023-04-16T10:14:50.745Z,52.80
2023-04-16T10:17:21.162Z,52.73
2023-04-16T10:19:49.499Z,52.78
2023-04-16T10:22:17.392Z,52.89
2023-04-16T10:24:46.929Z,52.93
2023-04-16T10:27:17.218Z,53.14
2023-04-16T10:29:45.891Z,53.50
2023-04-16T10:32:14.249Z,53.72
2023-04-16T10:34:42.482Z,54.02
2023-04-16T10:37:10.242Z,54.06
2023-04-16T10:39:40.540Z,53.95
2023-04-16T10:42:13.298Z,53.91
2023-04-16T10:44:45.049Z,54.38
2023-04-16T10:47:14.366Z,54.47
2023-04-16T10:49:43.570Z,54.71
2023-04-16T10:52:20.145Z,54.61
2023-04-16T10:54:50.023Z,54.93
2023-04-16T10:57:20.494Z,54.75
2023-04-16T10:59:49.695Z,54.85
2023-04-16T11:02:18.811Z,54.98
2023-04-16T11:04:49.655Z,55.19
2023-04-16T11:07:19.803Z,55.50
2023-04-16T11:10:00.475Z,55.47
2023-04-16T11:12:46.323Z,55.65
2023-04-16T11:15:17.050Z,55.76
2023-04-16T11:17:45.634Z,55.95
2023-04-16T11:20:20.938Z,55.90
2023-04-16T11:22:50.588Z,55.97
2023-04-16T11:25:30.046Z,56.03
2023-04-16T11:28:01.531Z,56.10
2023-04-16T11:30:38.881Z,56.23
2023-04-16T11:33:11.620Z,56.27
2023-04-16T11:35:41.264Z,56.08
2023-04-16T11:38:08.991Z,56.30
2023-04-16T11:40:36.702Z,56.41
2023-04-16T11:43:14.842Z,56.26
2023-04-16T11:46:13.226Z,56.42
2023-04-16T11:48:53.268Z,56.45
2023-04-16T11:51:23.827Z,56.58
2023-04-16T11:53:56.118Z,56.75
2023-04-16T11:56:33.210Z,56.72
2023-04-16T11:59:11.238Z,56.76
2023-04-16T12:01:41.638Z,56.78
2023-04-16T12:04:10.225Z,56.72
2023-04-16T12:06:38.359Z,56.62
2023-04-16T12:09:27.158Z,56.34
2023-04-16T12:11:57.018Z,56.39
2023-04-16T12:14:24.702Z,56.27
2023-04-16T12:16:52.980Z,56.41
2023-04-16T12:19:21.482Z,56.57
2023-04-16T12:21:51.029Z,56.51
2023-04-16T12:24:26.776Z,56.62
2023-04-16T12:27:03.108Z,56.77
2023-04-16T12:29:31.952Z,57.00
2023-04-16T12:31:59.847Z,56.87
2023-04-16T12:34:51.576Z,56.56
2023-04-16T12:37:21.324Z,56.95
2023-04-16T12:39:49.054Z,56.80
2023-04-16T12:42:16.879Z,57.00
2023-04-16T12:44:44.749Z,57.00
2023-04-16T12:47:12.496Z,56.99
2023-04-16T12:49:40.193Z,56.88
2023-04-16T12:52:14.441Z,56.71
2023-04-16T12:54:44.508Z,56.80
2023-04-16T12:57:12.547Z,56.80
2023-04-16T12:59:40.302Z,56.79
2023-04-16T13:02:10.466Z,56.75
2023-04-16T13:04:40.348Z,56.65
2023-04-16T13:07:09.897Z,56.72
2023-04-16T13:09:39.646Z,56.67
2023-04-16T13:12:07.871Z,56.52
2023-04-16T13:14:35.938Z,56.65
2023-04-16T13:17:06.356Z,56.59
2023-04-16T13:19:37.441Z,56.58
2023-04-16T13:22:05.208Z,56.62
2023-04-16T13:24:34.565Z,56.53
2023-04-16T13:27:02.312Z,56.51
2023-04-16T13:29:30.210Z,56.75
2023-04-16T13:31:58.276Z,56.68
2023-04-16T13:34:25.984Z,56.71
2023-04-16T13:36:54.390Z,56.62
2023-04-16T13:39:22.325Z,56.80
2023-04-16T13:41:52.058Z,56.74
2023-04-16T13:44:19.814Z,56.77
2023-04-16T13:46:47.883Z,56.57
2023-04-16T13:49:36.252Z,56.66
2023-04-16T13:52:37.009Z,56.72
2023-04-16T13:55:05.239Z,56.59
2023-04-16T13:57:33.687Z,56.60
2023-04-16T14:00:02.326Z,56.57
2023-04-16T14:02:32.771Z,56.65
2023-04-16T14:05:03.168Z,56.54
2023-04-16T14:07:32.523Z,56.37
2023-04-16T14:10:00.432Z,56.37
2023-04-16T14:12:28.295Z,56.28
2023-04-16T14:14:56.414Z,56.47
2023-04-16T14:17:24.214Z,56.42
2023-04-16T14:19:52.992Z,56.32
2023-04-16T14:22:20.809Z,56.39
2023-04-16T14:24:48.478Z,56.13
2023-04-16T14:27:16.987Z,56.21
2023-04-16T14:29:46.492Z,56.23
2023-04-16T14:32:14.490Z,56.23
2023-04-16T14:34:42.314Z,56.26
2023-04-16T14:37:10.780Z,56.10
2023-04-16T14:39:39.259Z,56.18
2023-04-16T14:42:07.147Z,56.26
2023-04-16T14:44:34.896Z,56.16
2023-04-16T14:47:02.946Z,56.28
2023-04-16T14:49:30.921Z,56.19
2023-04-16T14:51:59.512Z,56.15
2023-04-16T14:54:28.113Z,56.16
2023-04-16T14:56:56.688Z,56.12
2023-04-16T14:59:24.485Z,56.05
2023-04-16T15:01:58.859Z,56.09
2023-04-16T15:04:26.822Z,56.05
2023-04-16T15:06:58.747Z,56.13
2023-04-16T15:09:27.528Z,56.14
2023-04-16T15:11:55.364Z,56.17
2023-04-16T15:14:23.117Z,56.24
2023-04-16T15:16:52.300Z,56.04
2023-04-16T15:19:20.202Z,56.00
2023-04-16T15:21:48.934Z,55.93
2023-04-16T15:24:16.688Z,55.97
2023-04-16T15:26:45.390Z,55.95
2023-04-16T15:29:14.022Z,55.78
2023-04-16T15:31:41.867Z,55.94
2023-04-16T15:34:09.803Z,55.72
2023-04-16T15:36:37.772Z,55.69
2023-04-16T15:39:05.516Z,55.70
2023-04-16T15:41:37.124Z,55.64
2023-04-16T15:44:06.266Z,55.77
2023-04-16T15:46:34.130Z,55.65
2023-04-16T15:49:02.243Z,55.62
2023-04-16T15:51:31.574Z,55.75
2023-04-16T15:53:59.249Z,55.60
2023-04-16T15:56:27.284Z,55.67
2023-04-16T15:58:56.246Z,55.80
2023-04-16T16:01:24.890Z,55.68
2023-04-16T16:03:52.854Z,55.59
2023-04-16T16:06:21.036Z,55.57
2023-04-16T16:08:50.106Z,55.48
2023-04-16T16:11:17.873Z,55.52
2023-04-16T16:13:45.776Z,55.52
2023-04-16T16:16:13.471Z,55.48
2023-04-16T16:18:42.132Z,55.31
2023-04-16T16:21:11.166Z,55.50
2023-04-16T16:23:38.887Z,55.49
2023-04-16T16:26:07.073Z,55.43
2023-04-16T16:28:37.734Z,55.61
2023-04-16T16:31:07.093Z,55.70
2023-04-16T16:33:36.879Z,55.70
2023-04-16T16:36:09.405Z,55.66
2023-04-16T16:38:37.310Z,55.95
2023-04-16T16:41:04.892Z,55.79
2023-04-16T16:43:33.182Z,55.74
2023-04-16T16:46:00.876Z,55.78
2023-04-16T16:48:29.276Z,55.69
2023-04-16T16:50:58.299Z,55.77
2023-04-16T16:53:26.180Z,55.70
2023-04-16T16:55:54.025Z,55.85
2023-04-16T16:58:21.979Z,55.88
2023-04-16T17:00:49.760Z,55.99
2023-04-16T17:03:17.904Z,55.91
2023-04-16T17:05:45.944Z,56.05
2023-04-16T17:08:13.949Z,56.18
2023-04-16T17:10:43.490Z,56.14
2023-04-16T17:13:13.616Z,56.09
2023-04-16T17:15:42.005Z,56.11
2023-04-16T17:18:09.808Z,56.18
2023-04-16T17:20:37.940Z,56.09
2023-04-16T17:23:07.806Z,56.27
2023-04-16T17:25:35.990Z,56.10
2023-04-16T17:28:03.973Z,56.13
2023-04-16T17:30:32.026Z,56.16
2023-04-16T17:32:59.827Z,56.21
2023-04-16T17:35:27.899Z,56.34
2023-04-16T17:37:55.799Z,56.58
2023-04-16T17:40:23.563Z,56.25
2023-04-16T17:42:51.542Z,56.18
2023-04-16T17:45:19.412Z,56.48
2023-04-16T17:47:47.141Z,56.33
2023-04-16T17:50:17.050Z,56.29
2023-04-16T17:52:44.873Z,56.34
2023-04-16T17:55:12.645Z,56.56
2023-04-16T17:57:40.959Z,56.29
2023-04-16T18:00:12.493Z,56.42
2023-04-16T18:02:43.818Z,56.51
2023-04-16T18:05:11.663Z,56.63
2023-04-16T18:07:41.135Z,56.50
2023-04-16T18:10:09.787Z,56.48
2023-04-16T18:12:37.616Z,56.47
2023-04-16T18:15:07.127Z,56.30
2023-04-16T18:17:35.134Z,56.50
2023-04-16T18:20:05.349Z,56.41
2023-04-16T18:22:33.131Z,56.56
2023-04-16T18:25:01.126Z,56.46
2023-04-16T18:29:56.926Z,56.52
2023-04-16T18:32:24.745Z,56.70
2023-04-16T18:34:52.546Z,56.55
2023-04-16T18:37:20.650Z,56.64
2023-04-16T18:39:48.651Z,56.55
2023-04-16T18:42:16.370Z,56.53
2023-04-16T18:44:44.148Z,56.58
2023-04-16T18:47:11.847Z,56.74
2023-04-16T18:49:39.565Z,56.47
2023-04-16T18:52:07.262Z,56.79
2023-04-16T18:54:34.961Z,56.81
2023-04-16T18:57:04.002Z,56.58
2023-04-16T18:59:31.663Z,56.67
2023-04-16T19:01:59.890Z,56.71
2023-04-16T19:04:27.745Z,56.72
2023-04-16T19:06:55.826Z,56.59
2023-04-16T19:09:26.408Z,56.60
2023-04-16T19:11:55.995Z,56.43
2023-04-16T19:14:23.825Z,56.40
2023-04-16T19:16:51.491Z,56.58
2023-04-16T19:19:19.219Z,56.63
2023-04-16T19:21:46.920Z,56.39
2023-04-16T19:24:14.867Z,56.54
2023-04-16T19:26:45.038Z,56.48
2023-04-16T19:29:13.138Z,56.68
2023-04-16T19:31:40.960Z,56.46
2023-04-16T19:34:10.863Z,56.55
2023-04-16T19:36:38.708Z,56.45
2023-04-16T19:39:06.460Z,56.34
2023-04-16T19:41:34.199Z,56.52
2023-04-16T19:44:02.066Z,56.54
2023-04-16T19:46:32.542Z,56.49
2023-04-16T19:49:00.297Z,56.43
2023-04-16T19:51:28.215Z,56.60
2023-04-16T19:53:56.458Z,56.57
2023-04-16T19:56:24.132Z,56.68
2023-04-16T19:58:51.842Z,56.60
2023-04-16T20:01:19.675Z,56.60
2023-04-16T20:03:47.461Z,56.65
2023-04-16T20:06:17.380Z,56.65
2023-04-16T20:08:45.329Z,56.61
2023-04-16T20:11:12.980Z,56.76
2023-04-16T20:13:40.730Z,56.68
2023-04-16T20:16:09.400Z,56.53
2023-04-16T20:18:41.249Z,56.63
2023-04-16T20:21:10.447Z,56.50
2023-04-16T20:23:38.258Z,56.51
2023-04-16T20:26:06.891Z,56.61
2023-04-16T20:28:34.616Z,56.61
2023-04-16T20:31:05.258Z,56.79
2023-04-16T20:33:33.029Z,56.78
2023-04-16T20:36:00.758Z,56.70
2023-04-16T20:38:32.190Z,56.74
2023-04-16T20:41:09.986Z,56.88
2023-04-16T20:43:38.837Z,56.83
2023-04-16T20:46:08.179Z,56.87
2023-04-16T20:48:36.258Z,56.81
2023-04-16T20:51:06.078Z,56.72
2023-04-16T20:53:36.963Z,56.80
2023-04-16T20:56:05.182Z,56.80
2023-04-16T20:58:32.986Z,56.86
2023-04-16T21:01:01.030Z,57.05
2023-04-16T21:03:29.059Z,56.84
2023-04-16T21:05:56.865Z,56.98
2023-04-16T21:08:24.911Z,56.89
2023-04-16T21:10:52.670Z,56.80
2023-04-16T21:13:21.601Z,56.85
2023-04-16T21:15:49.461Z,56.90
2023-04-16T21:18:18.525Z,56.87
2023-04-16T21:20:46.668Z,56.88
2023-04-16T21:23:14.430Z,56.83
2023-04-16T21:25:42.165Z,56.83
2023-04-16T21:28:09.921Z,56.77
2023-04-16T21:30:38.293Z,56.83
2023-04-16T21:33:06.605Z,56.76
2023-04-16T21:35:34.930Z,56.91
2023-04-16T21:38:02.612Z,56.87
2023-04-16T21:40:30.364Z,56.84
2023-04-16T21:42:58.140Z,56.96
2023-04-16T21:45:25.856Z,56.86
2023-04-16T21:47:53.604Z,57.00
2023-04-16T21:50:21.418Z,56.94
2023-04-16T21:52:52.502Z,56.91
2023-04-16T21:55:20.735Z,56.88
2023-04-16T21:57:48.549Z,57.05
2023-04-16T22:00:18.164Z,56.99
2023-04-16T22:02:46.009Z,56.95
2023-04-16T22:05:14.046Z,57.02
2023-04-16T22:07:43.282Z,57.06
2023-04-16T22:10:13.582Z,57.22
2023-04-16T22:12:45.629Z,57.02
2023-04-16T22:15:15.776Z,57.13
2023-04-16T22:17:43.994Z,57.16
2023-04-16T22:20:13.101Z,57.13
2023-04-16T22:22:42.326Z,57.17
2023-04-16T22:25:11.296Z,56.95
2023-04-16T22:27:39.069Z,57.15
2023-04-16T22:30:08.290Z,57.14
2023-04-16T22:32:36.283Z,57.23
2023-04-16T22:35:04.637Z,57.26
2023-04-16T22:37:33.518Z,57.26
2023-04-16T22:40:01.629Z,57.28
2023-04-16T22:42:29.367Z,57.20
2023-04-16T22:44:57.177Z,57.15
2023-04-16T22:47:24.949Z,57.18
2023-04-16T22:49:53.691Z,57.20
2023-04-16T22:52:21.426Z,56.98
2023-04-16T22:54:49.216Z,57.22
2023-04-16T22:57:20.958Z,57.14
2023-04-16T22:59:48.803Z,57.07
2023-04-16T23:02:16.815Z,57.16
2023-04-16T23:04:46.008Z,57.20
2023-04-16T23:07:14.753Z,57.05
2023-04-16T23:09:42.683Z,57.15
2023-04-16T23:12:10.427Z,57.09
2023-04-16T23:14:38.156Z,57.12
2023-04-16T23:17:05.968Z,57.09
2023-04-16T23:19:33.668Z,57.20
2023-04-16T23:22:01.376Z,57.14
2023-04-16T23:24:29.085Z,57.17
2023-04-16T23:26:57.856Z,57.13
2023-04-16T23:29:25.569Z,57.15
2023-04-16T23:31:53.287Z,57.16
2023-04-16T23:34:21.283Z,57.05
2023-04-16T23:36:49.079Z,57.03
2023-04-16T23:39:16.809Z,57.11
2023-04-16T23:41:45.095Z,57.00
2023-04-16T23:44:12.785Z,57.11
2023-04-16T23:46:40.931Z,57.14
2023-04-16T23:49:08.854Z,57.12
2023-04-16T23:51:36.672Z,57.20
2023-04-16T23:54:04.609Z,57.25
2023-04-16T23:56:32.295Z,57.37
2023-04-16T23:58:59.947Z,57.17
